Observations for DINARD PLEURTUIT, France (LFRD)

LFRD 230530Z AUTO 20011KT 9999 -DZ BKN007 OVC011 09/09 Q1021 TEMPO 1500 DZ BR BKN002
LFRD 230500Z AUTO 19012KT 9999 BKN006 BKN020 OVC050 09/08 Q1021 TEMPO 1500 DZ BR BKN002 
LFRD 230430Z AUTO 19013KT 9000 RA BKN007/// OVC052/// ///TCU 09/08 Q1021 TEMPO 1500 DZ BR BKN002
LFRD 230400Z AUTO 19014KT 9999 SCT008/// BKN049/// BKN076/// ///TCU 09/08 Q1021 TEMPO 1500 DZ BR BKN002 
LFRD 230330Z AUTO 19012KT 9999 BKN005 BKN058 OVC070 08/08 Q1022 TEMPO 1500 DZ BR
LFRD 230300Z AUTO 19011KT 9999 OVC004 08/08 Q1022 TEMPO 1500 DZ BR OVC008   
LFRD 230230Z AUTO 20009KT 9999 OVC004 08/08 Q1022 TEMPO 4000 RA BECMG OVC008
LFRD 230200Z AUTO 20010KT 9999 OVC003 08/07 Q1023 TEMPO 4000 RA BECMG OVC008
LFRD 230130Z AUTO 20007KT 9999 OVC004 07/07 Q1023 TEMPO 4000 RA BECMG OVC008
LFRD 230100Z AUTO 20009KT 9999 BKN005 07/07 Q1023 TEMPO 4000 RA BKN012  
LFRD 230030Z AUTO 20007KT CAVOK 07/06 Q1023 BECMG BKN012
LFRD 230000Z AUTO 20006KT CAVOK 07/06 Q1023 BECMG BKN012
LFRD 222330Z AUTO 20007KT CAVOK 07/05 Q1023 BECMG BKN012
LFRD 222300Z AUTO 22008KT 9999 SCT027 08/06 Q1023 BECMG BKN012  
LFRD 222230Z AUTO 22008KT 9999 OVC030 09/06 Q1023 NOSIG 
LFRD 222200Z AUTO 22010KT 9999 OVC028 09/06 Q1023 NOSIG 
LFRD 222130Z AUTO 22007KT 9999 OVC028 10/06 Q1023 NOSIG 
LFRD 222100Z AUTO 22006KT 9999 OVC026 10/07 Q1023 NOSIG 
LFRD 222030Z AUTO 22005KT 9999 OVC029 09/07 Q1023 NOSIG 
LFRD 222000Z AUTO 21004KT 9999 OVC027 09/07 Q1023 NOSIG 
LFRD 221930Z AUTO 25004KT 9999 OVC028 10/06 Q1023 NOSIG 
LFRD 221900Z AUTO 28009KT 9999 OVC028 10/06 Q1023 BECMG 21010KT 
LFRD 221830Z AUTO 29009KT 9999 OVC030 10/07 Q1023 BECMG 21010KT 
LFRD 221800Z AUTO 28012KT 9999 OVC030 10/06 Q1022 BECMG 21010KT 
LFRD 221730Z AUTO 28007KT 9999 OVC030 10/06 Q1022 BECMG 21010KT 
LFRD 221700Z AUTO 28007KT 9999 FEW037 09/06 Q1022 NOSIG 
LFRD 221630Z AUTO 28009KT 9999 FEW027 BKN034 BKN040 10/06 Q1021 NOSIG   
LFRD 221600Z AUTO 29012KT 9999 FEW034 10/06 Q1021 NOSIG 
LFRD 221530Z AUTO 30015KT 9999 BKN032 10/06 Q1020 NOSIG 
LFRD 221500Z AUTO 30015KT 9999 FEW018 11/07 Q1019 NOSIG 
LFRD 221430Z AUTO 30013KT 9999 FEW017 11/08 Q1019 NOSIG 
LFRD 221400Z AUTO 30016KT 9999 FEW013 BKN039 11/09 Q1019 NOSIG  
LFRD 221330Z AUTO 30016KT 9999 OVC013 11/09 Q1019 BECMG BKN020  
LFRD 221300Z AUTO 30017KT 9999 OVC013 11/09 Q1018 BECMG BKN020  
LFRD 221230Z AUTO 30017KT 9999 BKN013 BKN018 BKN025 11/09 Q1018 BECMG BKN020
LFRD 221200Z AUTO 32016KT 290V350 9999 SCT012 SCT017 11/09 Q1017 BECMG BKN020   
LFRD 221130Z AUTO 32018KT 9999 FEW010 SCT016 BKN026 10/09 Q1017 TEMPO 33020G30KT BKN013 
LFRD 221100Z AUTO 33020KT 9999 BKN010 OVC030 10/09 Q1016 TEMPO 4000 SHRA BECMG BKN016   
LFRD 221030Z AUTO 33020G31KT 9000 -DZ BKN007 BKN011 BKN023 10/09 Q1015 TEMPO 4000 SHRA BECMG 29012KT
LFRD 221000Z AUTO 33024G35KT 300V360 9999 BKN007 OVC018 11/09 Q1013 TEMPO 4000 SHRA BECMG 29012KT   
LFRD 220930Z AUTO 29016KT 9999 -DZ BKN009 BKN015 OVC023 11/10 Q1011 TEMPO 4000 SHRA BECMG 35020G35KT
LFRD 220900Z AUTO 26012KT 220V290 9999 -RADZ OVC023 13/10 Q1010 TEMPO 4000 SHRA BKN008 BECMG 35020G35KT 
LFRD 220830Z AUTO 25013KT 9999 OVC025 13/10 Q1010 TEMPO 4000 SHRA BKN008 BECMG 35020G35KT   
LFRD 220800Z AUTO 25011KT 9999 FEW017 BKN024 OVC030 13/11 Q1010 TEMPO 4000 SHRA BKN008 BECMG 35020G35KT 
LFRD 220730Z AUTO 23014KT 9999 BKN015 OVC026 13/11 Q1010 TEMPO 4000 SHRA BKN008 BECMG 29020G30KT
LFRD 220700Z AUTO 23013KT 9999 -RADZ BKN015 OVC021 13/11 Q1010 TEMPO 4000 SHRA BKN008 BECMG 29020G30KT  
LFRD 220630Z AUTO 23014KT 9999 BKN014 OVC019 13/12 Q1010 TEMPO 4000 SHRA BKN008 BECMG 29020G30KT
LFRD 220600Z AUTO 23015KT 9999 BKN011 OVC016 13/12 Q1011 TEMPO 4000 SHRA BKN008 BECMG 29020G30KT
LFRD 220530Z AUTO 23014KT 9999 -DZ OVC011 13/12 Q1011 TEMPO 3000 RADZ BR BKN008 BECMG 24015G30KT
LFRD 220500Z AUTO 23015KT 9999 OVC014 13/12 Q1011 TEMPO 27030G40KT 4000 SHRA BKN007